Time;durP1;ratioP1;P1;durP2;ratioP2;P2;SDS_P1;SDS_P2;PMS_P1;PMS_P2;Temp;Humidity;BMP_temperature;BMP_pressure;BME280_temperature;BME280_humidity;BME280_pressure;Samples;Min_cycle;Max_cycle;Signal;HPM_P1;HPM_P2
2022/03/28 00:01:36;;;;;;;;;;;;;;;;;;4239024;28;947;-59
2022/03/28 00:03:56;;;;;;;;;;;;;;;;;;4238849;27;988;-59
2022/03/28 00:06:17;;;;;;;;;;;;;;;;;;4239010;28;854;-59
2022/03/28 00:08:37;;;;;;;;;;;;;;;;;;4238502;27;992;-59
2022/03/28 00:10:58;;;;;;;;;;;;;;;;;;4238499;27;925;-59
2022/03/28 00:13:19;;;;;;;;;;;;;;;;;;4238291;27;1190;-59
2022/03/28 00:15:40;;;;;;;;;;;;;;;;;;4238552;27;1021;-58
2022/03/28 00:18:01;;;;;;;;;;;;;;;;;;4237991;27;1318;-59
2022/03/28 00:20:23;;;;;;;;;;;;;;;;;;4237762;27;1913;-59
2022/03/28 00:22:43;;;;;;;;;;;;;;;;;;4238072;27;1289;-59
2022/03/28 00:25:04;;;;;;;;;;;;;;;;;;4238324;28;1150;-59
2022/03/28 00:27:25;;;;;;;;;;;;;;;;;;4238266;28;855;-59
2022/03/28 00:29:45;;;;;;;;;;;;;;;;;;4238121;27;1026;-59
2022/03/28 00:32:06;;;;;;;;;;;;;;;;;;4237072;28;981;-58
2022/03/28 00:34:27;;;;;;;;;;;;;;;;;;4238435;28;930;-59
2022/03/28 00:36:47;;;;;;;;;;;;;;;;;;4238349;28;834;-59
2022/03/28 00:39:08;;;;;;;;;;;;;;;;;;4237743;27;1910;-59
2022/03/28 00:41:28;;;;;;;;;;;;;;;;;;4238079;28;981;-59
2022/03/28 00:43:49;;;;;;;;;;;;;;;;;;4238132;28;1235;-58
2022/03/28 00:46:10;;;;;;;;;;;;;;;;;;4237518;27;994;-58
2022/03/28 00:48:30;;;;;;;;;;;;;;;;;;4237610;27;1907;-59
2022/03/28 00:50:51;;;;;;;;;;;;;;;;;;4237580;27;1198;-59
2022/03/28 00:53:12;;;;;;;;;;;;;;;;;;4237555;27;949;-59
2022/03/28 00:55:33;;;;;;;;;;;;;;;;;;4237514;28;1004;-59
2022/03/28 00:57:53;;;;;;;;;;;;;;;;;;4237120;27;848;-59
2022/03/28 01:04:04;;;;;;;;;;;;;;;;;;4210684;28;1312;-59
2022/03/28 01:06:25;;;;;;;;;;;;;;;;;;4219977;28;1306;-59
2022/03/28 01:08:45;;;;;;;;;;;;;;;;;;4220877;28;873;-59
2022/03/28 01:11:09;;;;;;;;;;;;;;;;;;4220918;28;1057;-59
2022/03/28 01:13:30;;;;;;;;;;;;;;;;;;4220721;28;1022;-59
2022/03/28 01:15:50;;;;;;;;;;;;;;;;;;4220905;28;934;-59
2022/03/28 01:18:11;;;;;;;;;;;;;;;;;;4220844;28;970;-59
2022/03/28 01:20:32;;;;;;;;;;;;;;;;;;4220719;28;1976;-59
2022/03/28 01:22:52;;;;;;;;;;;;;;;;;;4220898;28;1211;-59
2022/03/28 01:25:13;;;;;;;;;;;;;;;;;;4221960;28;817;-59
2022/03/28 01:27:36;;;;;;;;;;;;;;;;;;4220547;28;945;-59
2022/03/28 01:29:56;;;;;;;;;;;;;;;;;;4221348;28;813;-59
2022/03/28 01:32:17;;;;;;;;;;;;;;;;;;4220839;28;1035;-59
2022/03/28 01:34:37;;;;;;;;;;;;;;;;;;4220817;28;885;-59
2022/03/28 01:36:58;;;;;;;;;;;;;;;;;;4220259;28;1363;-59
2022/03/28 01:39:19;;;;;;;;;;;;;;;;;;4220522;28;967;-59
2022/03/28 01:41:40;;;;;;;;;;;;;;;;;;4220551;28;809;-59
2022/03/28 01:44:00;;;;;;;;;;;;;;;;;;4218598;28;966;-60
2022/03/28 01:46:21;;;;;;;;;;;;;;;;;;4220275;28;1149;-59
2022/03/28 01:48:42;;;;;;;;;;;;;;;;;;4220495;28;1092;-60
2022/03/28 01:51:03;;;;;;;;;;;;;;;;;;4220123;28;1202;-59
2022/03/28 01:53:24;;;;;;;;;;;;;;;;;;4220376;28;964;-58
2022/03/28 01:55:45;;;;;;;;;;;;;;;;;;4219539;28;905;-59
2022/03/28 01:58:05;;;;;;;;;;;;;;;;;;4218500;28;1191;-59
2022/03/28 02:00:28;;;;;;;;;;;;;;;;;;4219889;28;1975;-58
2022/03/28 02:02:49;;;;;;;;;;;;;;;;;;4220451;28;1194;-58
2022/03/28 02:05:11;;;;;;;;;;;;;;;;;;4218824;28;946;-59
2022/03/28 02:07:32;;;;;;;;;;;;;;;;;;4219545;28;1009;-58
2022/03/28 02:09:52;;;;;;;;;;;;;;;;;;4220064;28;964;-59
2022/03/28 02:12:13;;;;;;;;;;;;;;;;;;4220097;28;1044;-59
2022/03/28 02:14:34;;;;;;;;;;;;;;;;;;4220584;28;1349;-59
2022/03/28 02:16:55;;;;;;;;;;;;;;;;;;4220548;28;1052;-59
2022/03/28 02:19:15;;;;;;;;;;;;;;;;;;4219442;28;975;-58
2022/03/28 02:21:36;;;;;;;;;;;;;;;;;;4219782;28;1988;-60
2022/03/28 02:23:57;;;;;;;;;;;;;;;;;;4220453;28;969;-59
2022/03/28 02:26:17;;;;;;;;;;;;;;;;;;4220325;28;821;-59
2022/03/28 02:28:38;;;;;;;;;;;;;;;;;;4220095;28;832;-60
2022/03/28 02:30:59;;;;;;;;;;;;;;;;;;4220605;28;933;-60
2022/03/28 02:33:19;;;;;;;;;;;;;;;;;;4220517;28;1084;-59
2022/03/28 02:35:41;;;;;;;;;;;;;;;;;;4220134;28;1148;-59
2022/03/28 02:38:01;;;;;;;;;;;;;;;;;;4220446;28;1213;-59
2022/03/28 02:40:22;;;;;;;;;;;;;;;;;;4220552;28;1984;-60
2022/03/28 02:42:43;;;;;;;;;;;;;;;;;;4220125;28;928;-60
2022/03/28 02:45:04;;;;;;;;;;;;;;;;;;4220068;28;1129;-60
2022/03/28 02:47:24;;;;;;;;;;;;;;;;;;4204623;28;918;-60
2022/03/28 02:49:45;;;;;;;;;;;;;;;;;;4220284;28;1311;-60
2022/03/28 02:52:06;;;;;;;;;;;;;;;;;;4218521;28;1019;-60
2022/03/28 02:54:27;;;;;;;;;;;;;;;;;;4220030;28;847;-59
2022/03/28 02:56:48;;;;;;;;;;;;;;;;;;4220048;28;937;-60
2022/03/28 02:59:08;;;;;;;;;;;;;;;;;;4219462;28;1140;-60
2022/03/28 03:01:28;;;;;;;;;;;;;;;;;;4219895;28;1975;-59
2022/03/28 03:03:49;;;;;;;;;;;;;;;;;;4219577;28;820;-60
2022/03/28 03:06:10;;;;;;;;;;;;;;;;;;4218272;28;838;-62
2022/03/28 03:08:30;;;;;;;;;;;;;;;;;;4219645;28;935;-59
2022/03/28 03:10:51;;;;;;;;;;;;;;;;;;4219404;28;925;-60
2022/03/28 03:13:12;;;;;;;;;;;;;;;;;;4219461;28;1294;-59
2022/03/28 03:15:32;;;;;;;;;;;;;;;;;;4219887;28;1024;-59
2022/03/28 03:17:53;;;;;;;;;;;;;;;;;;4220399;28;861;-60
2022/03/28 03:20:14;;;;;;;;;;;;;;;;;;4222702;28;1985;-60
2022/03/28 03:22:35;;;;;;;;;;;;;;;;;;4222294;28;1178;-59
2022/03/28 03:24:56;;;;;;;;;;;;;;;;;;4222278;28;1021;-59
2022/03/28 03:27:16;;;;;;;;;;;;;;;;;;4222688;28;861;-60
2022/03/28 03:29:37;;;;;;;;;;;;;;;;;;4222823;28;1072;-60
2022/03/28 03:31:58;;;;;;;;;;;;;;;;;;4222360;28;1246;-60
2022/03/28 03:34:18;;;;;;;;;;;;;;;;;;4222671;28;1095;-60
2022/03/28 03:36:39;;;;;;;;;;;;;;;;;;4222333;28;933;-60
2022/03/28 03:39:00;;;;;;;;;;;;;;;;;;4222605;28;850;-60
2022/03/28 03:41:20;;;;;;;;;;;;;;;;;;4222409;28;1905;-60
2022/03/28 03:43:41;;;;;;;;;;;;;;;;;;4220686;28;1256;-60
2022/03/28 03:46:02;;;;;;;;;;;;;;;;;;4222102;28;995;-60
2022/03/28 03:48:22;;;;;;;;;;;;;;;;;;4222661;28;1311;-59
2022/03/28 03:50:43;;;;;;;;;;;;;;;;;;4222199;28;968;-60
2022/03/28 03:53:04;;;;;;;;;;;;;;;;;;4222308;28;1010;-60
2022/03/28 03:55:24;;;;;;;;;;;;;;;;;;4222203;28;950;-60
2022/03/28 03:57:46;;;;;;;;;;;;;;;;;;4222215;28;960;-60
2022/03/28 04:00:08;;;;;;;;;;;;;;;;;;4221848;28;1131;-60
2022/03/28 04:02:35;;;;;;;;;;;;;;;;;;4222261;28;965;-59
2022/03/28 04:04:56;;;;;;;;;;;;;;;;;;4222265;28;949;-60
2022/03/28 04:07:17;;;;;;;;;;;;;;;;;;4222024;28;1285;-60
2022/03/28 04:09:38;;;;;;;;;;;;;;;;;;4222424;28;839;-60
2022/03/28 04:11:59;;;;;;;;;;;;;;;;;;4221975;28;1277;-60
2022/03/28 04:14:20;;;;;;;;;;;;;;;;;;4221538;28;1129;-60
2022/03/28 04:16:41;;;;;;;;;;;;;;;;;;4221939;28;1084;-60
2022/03/28 04:19:01;;;;;;;;;;;;;;;;;;4221897;28;810;-60
2022/03/28 04:21:22;;;;;;;;;;;;;;;;;;4221416;28;1937;-60
2022/03/28 04:23:43;;;;;;;;;;;;;;;;;;4221644;28;970;-60
2022/03/28 04:26:04;;;;;;;;;;;;;;;;;;4221738;28;1021;-60
2022/03/28 04:28:25;;;;;;;;;;;;;;;;;;4221270;28;1025;-59
2022/03/28 04:30:46;;;;;;;;;;;;;;;;;;4220708;28;1650;-60
2022/03/28 04:33:07;;;;;;;;;;;;;;;;;;4220951;28;1567;-59
2022/03/28 04:35:27;;;;;;;;;;;;;;;;;;4221375;28;1101;-60
2022/03/28 04:37:48;;;;;;;;;;;;;;;;;;4221596;28;978;-59
2022/03/28 04:40:09;;;;;;;;;;;;;;;;;;4221650;28;969;-59
2022/03/28 04:42:30;;;;;;;;;;;;;;;;;;4221384;28;1905;-60
2022/03/28 04:44:51;;;;;;;;;;;;;;;;;;4221236;28;1052;-60
2022/03/28 04:47:11;;;;;;;;;;;;;;;;;;4221768;28;1008;-59
2022/03/28 04:49:32;;;;;;;;;;;;;;;;;;4221366;28;1074;-59
2022/03/28 04:51:53;;;;;;;;;;;;;;;;;;4221527;28;953;-59
2022/03/28 04:54:14;;;;;;;;;;;;;;;;;;4221362;28;793;-60
2022/03/28 04:56:34;;;;;;;;;;;;;;;;;;4221507;28;1166;-60
2022/03/28 04:58:55;;;;;;;;;;;;;;;;;;4220165;28;1044;-60
2022/03/28 05:01:16;;;;;;;;;;;;;;;;;;4220421;28;1910;-60
2022/03/28 05:03:36;;;;;;;;;;;;;;;;;;4220805;28;1037;-60
2022/03/28 05:05:57;;;;;;;;;;;;;;;;;;4220657;28;982;-60
2022/03/28 05:08:19;;;;;;;;;;;;;;;;;;4220882;28;1161;-60
2022/03/28 05:10:40;;;;;;;;;;;;;;;;;;4219618;28;1253;-59
2022/03/28 05:13:01;;;;;;;;;;;;;;;;;;4220738;28;1168;-60
2022/03/28 05:15:21;;;;;;;;;;;;;;;;;;4221001;28;1065;-60
2022/03/28 05:17:42;;;;;;;;;;;;;;;;;;4220861;28;810;-60
2022/03/28 05:20:04;;;;;;;;;;;;;;;;;;4220857;28;1562;-60
2022/03/28 05:22:24;;;;;;;;;;;;;;;;;;4204267;28;1906;-60
2022/03/28 05:24:45;;;;;;;;;;;;;;;;;;4203987;28;1008;-60
2022/03/28 05:27:06;;;;;;;;;;;;;;;;;;4204076;28;944;-60
2022/03/28 05:29:27;;;;;;;;;;;;;;;;;;4204339;28;982;-60
2022/03/28 05:31:47;;;;;;;;;;;;;;;;;;4218841;28;1267;-60
2022/03/28 05:34:08;;;;;;;;;;;;;;;;;;4209279;28;1707;-60
2022/03/28 05:36:29;;;;;;;;;;;;;;;;;;4204090;28;1188;-60
2022/03/28 05:38:50;;;;;;;;;;;;;;;;;;4204227;28;936;-60
2022/03/28 05:41:10;;;;;;;;;;;;;;;;;;4203237;28;1978;-60
2022/03/28 05:43:31;;;;;;;;;;;;;;;;;;4203665;28;1004;-60
2022/03/28 05:45:52;;;;;;;;;;;;;;;;;;4202633;28;962;-65
2022/03/28 05:48:13;;;;;;;;;;;;;;;;;;4203246;28;954;-60
2022/03/28 05:50:33;;;;;;;;;;;;;;;;;;4203892;28;1198;-61
2022/03/28 05:52:54;;;;;;;;;;;;;;;;;;4203340;28;1032;-60
2022/03/28 05:55:15;;;;;;;;;;;;;;;;;;4203625;28;1181;-60
2022/03/28 05:57:36;;;;;;;;;;;;;;;;;;4203592;28;1111;-60
2022/03/28 05:59:56;;;;;;;;;;;;;;;;;;4203649;28;926;-60
2022/03/28 06:02:17;;;;;;;;;;;;;;;;;;4214125;28;1971;-60
2022/03/28 06:04:38;;;;;;;;;;;;;;;;;;4220282;28;954;-60
2022/03/28 06:06:59;;;;;;;;;;;;;;;;;;4220215;28;1182;-60
2022/03/28 06:09:19;;;;;;;;;;;;;;;;;;4220276;28;961;-60
2022/03/28 06:11:39;;;;;;;;;;;;;;;;;;4201555;28;2531;-60
2022/03/28 06:14:01;;;;;;;;;;;;;;;;;;4203622;28;2083;-59
2022/03/28 06:16:22;;;;;;;;;;;;;;;;;;4204371;28;2007;-60
2022/03/28 06:18:42;;;;;;;;;;;;;;;;;;4213905;28;1286;-61
2022/03/28 06:21:04;;;;;;;;;;;;;;;;;;4222711;27;1249;-60
2022/03/28 06:23:25;;;;;;;;;;;;;;;;;;4229470;27;1479;-60
2022/03/28 06:25:45;;;;;;;;;;;;;;;;;;4218001;28;1278;-60
2022/03/28 06:28:06;;;;;;;;;;;;;;;;;;4204166;28;1278;-60
2022/03/28 06:30:27;;;;;;;;;;;;;;;;;;4219856;28;2319;-60
2022/03/28 06:32:47;;;;;;;;;;;;;;;;;;4208151;28;2388;-60
2022/03/28 06:35:08;;;;;;;;;;;;;;;;;;4203202;28;1999;-60
2022/03/28 06:37:29;;;;;;;;;;;;;;;;;;4207874;28;2320;-61
2022/03/28 06:39:49;;;;;;;;;;;;;;;;;;4221724;28;1633;-60
2022/03/28 06:42:10;;;;;;;;;;;;;;;;;;4210889;28;2001;-60
2022/03/28 06:44:31;;;;;;;;;;;;;;;;;;4210710;28;1933;-60
2022/03/28 06:46:52;;;;;;;;;;;;;;;;;;4205077;28;2069;-60
2022/03/28 06:49:13;;;;;;;;;;;;;;;;;;4212526;28;1532;-60
2022/03/28 06:51:34;;;;;;;;;;;;;;;;;;4218230;28;868;-60
2022/03/28 06:53:54;;;;;;;;;;;;;;;;;;4206239;28;2079;-59
2022/03/28 06:56:15;;;;;;;;;;;;;;;;;;4212999;28;985;-59
2022/03/28 06:58:35;;;;;;;;;;;;;;;;;;4221754;28;1140;-59
2022/03/28 07:00:56;;;;;;;;;;;;;;;;;;4208246;28;1935;-59
2022/03/28 07:03:17;;;;;;;;;;;;;;;;;;4206333;28;1909;-60
2022/03/28 07:05:37;;;;;;;;;;;;;;;;;;4215510;28;2443;-60
2022/03/28 07:07:58;;;;;;;;;;;;;;;;;;4214187;28;2727;-59
2022/03/28 07:10:20;;;;;;;;;;;;;;;;;;4230663;28;1401;-59
2022/03/28 07:12:41;;;;;;;;;;;;;;;;;;4219266;28;1837;-60
2022/03/28 07:15:02;;;;;;;;;;;;;;;;;;4211998;28;1304;-60
2022/03/28 07:17:23;;;;;;;;;;;;;;;;;;4210897;28;1512;-57
2022/03/28 07:19:46;;;;;;;;;;;;;;;;;;4214888;28;2311;-58
2022/03/28 07:22:10;;;;;;;;;;;;;;;;;;4215603;28;1910;-58
2022/03/28 07:24:30;;;;;;;;;;;;;;;;;;4220191;28;1248;-58
2022/03/28 07:26:53;;;;;;;;;;;;;;;;;;4221124;28;927;-57
2022/03/28 07:29:14;;;;;;;;;;;;;;;;;;4205121;28;816;-58
2022/03/28 07:31:39;;;;;;;;;;;;;;;;;;4204084;28;981;-59
2022/03/28 07:36:34;;;;;;;;;;;;;;;;;;4204139;28;969;-58
2022/03/28 07:38:55;;;;;;;;;;;;;;;;;;4204282;28;1075;-58
2022/03/28 07:41:16;;;;;;;;;;;;;;;;;;4204237;28;949;-59
2022/03/28 07:43:37;;;;;;;;;;;;;;;;;;4204034;28;1934;-59
2022/03/28 07:45:57;;;;;;;;;;;;;;;;;;4204183;28;1099;-59
2022/03/28 07:48:18;;;;;;;;;;;;;;;;;;4204138;28;1134;-59
2022/03/28 07:50:39;;;;;;;;;;;;;;;;;;4210383;28;1806;-59
2022/03/28 07:52:59;;;;;;;;;;;;;;;;;;4209887;28;1871;-58
2022/03/28 07:55:20;;;;;;;;;;;;;;;;;;4203876;28;1147;-58
2022/03/28 07:57:41;;;;;;;;;;;;;;;;;;4203817;28;1058;-58
2022/03/28 08:00:04;;;;;;;;;;;;;;;;;;4210149;28;1433;-59
2022/03/28 08:02:33;;;;;;;;;;;;;;;;;;4220510;28;1978;-60
2022/03/28 08:04:53;;;;;;;;;;;;;;;;;;4212277;28;1072;-58
2022/03/28 08:07:14;;;;;;;;;;;;;;;;;;4210884;28;1133;-58
2022/03/28 08:09:34;;;;;;;;;;;;;;;;;;4204207;28;1045;-58
2022/03/28 08:11:56;;;;;;;;;;;;;;;;;;4203928;28;1072;-58
2022/03/28 08:14:17;;;;;;;;;;;;;;;;;;4204037;28;867;-59
2022/03/28 08:16:38;;;;;;;;;;;;;;;;;;4212152;28;1416;-58
2022/03/28 08:18:59;;;;;;;;;;;;;;;;;;4237309;27;952;-58
2022/03/28 08:21:19;;;;;;;;;;;;;;;;;;4203770;28;1296;-58
2022/03/28 08:23:40;;;;;;;;;;;;;;;;;;4204421;28;1914;-59
2022/03/28 08:26:01;;;;;;;;;;;;;;;;;;4218464;28;1116;-58
2022/03/28 08:28:21;;;;;;;;;;;;;;;;;;4220328;28;1206;-58
2022/03/28 08:30:42;;;;;;;;;;;;;;;;;;4220162;28;1012;-58
2022/03/28 08:33:03;;;;;;;;;;;;;;;;;;4247615;27;993;-59
2022/03/28 08:35:25;;;;;;;;;;;;;;;;;;4220238;28;1028;-61
2022/03/28 08:37:45;;;;;;;;;;;;;;;;;;4219934;28;1685;-58
2022/03/28 08:40:06;;;;;;;;;;;;;;;;;;4220154;28;1715;-58
2022/03/28 08:42:27;;;;;;;;;;;;;;;;;;4220734;28;1979;-57
2022/03/28 08:44:48;;;;;;;;;;;;;;;;;;4219018;28;2376;-58
2022/03/28 08:47:08;;;;;;;;;;;;;;;;;;4203086;28;2424;-58
2022/03/28 08:49:29;;;;;;;;;;;;;;;;;;4210677;28;2339;-57
2022/03/28 08:51:51;;;;;;;;;;;;;;;;;;4217933;28;1127;-58
2022/03/28 08:54:12;;;;;;;;;;;;;;;;;;4205572;28;1884;-59
2022/03/28 08:56:33;;;;;;;;;;;;;;;;;;4202577;28;2629;-57
2022/03/28 08:58:53;;;;;;;;;;;;;;;;;;4211396;28;1888;-57
2022/03/28 09:01:14;;;;;;;;;;;;;;;;;;4205138;28;1687;-57
2022/03/28 09:03:35;;;;;;;;;;;;;;;;;;4208541;28;1905;-57
2022/03/28 09:05:56;;;;;;;;;;;;;;;;;;4208751;28;2292;-57
2022/03/28 09:08:16;;;;;;;;;;;;;;;;;;4210557;28;1330;-58
2022/03/28 09:10:37;;;;;;;;;;;;;;;;;;4205767;28;2099;-58
2022/03/28 09:12:58;;;;;;;;;;;;;;;;;;4205715;28;1941;-57
2022/03/28 09:15:19;;;;;;;;;;;;;;;;;;4213901;28;1948;-57
2022/03/28 09:17:40;;;;;;;;;;;;;;;;;;4234417;27;2022;-58
2022/03/28 09:20:02;;;;;;;;;;;;;;;;;;4208612;28;1915;-57
2022/03/28 09:22:24;;;;;;;;;;;;;;;;;;4208638;28;2066;-58
2022/03/28 09:24:45;;;;;;;;;;;;;;;;;;4208186;28;1889;-58
2022/03/28 09:27:06;;;;;;;;;;;;;;;;;;4210803;28;1727;-57
2022/03/28 09:29:26;;;;;;;;;;;;;;;;;;4205993;28;2452;-57
2022/03/28 09:31:47;;;;;;;;;;;;;;;;;;4218871;28;1576;-58
2022/03/28 09:34:08;;;;;;;;;;;;;;;;;;4208725;28;2315;-58
2022/03/28 09:36:29;;;;;;;;;;;;;;;;;;4217682;28;1124;-57
2022/03/28 09:38:49;;;;;;;;;;;;;;;;;;4219480;28;956;-58
2022/03/28 09:41:10;;;;;;;;;;;;;;;;;;4214829;28;1052;-58
2022/03/28 09:43:31;;;;;;;;;;;;;;;;;;4202808;28;1987;-58
2022/03/28 09:45:53;;;;;;;;;;;;;;;;;;4206812;28;1963;-58
2022/03/28 09:48:15;;;;;;;;;;;;;;;;;;4215892;28;1979;-57
2022/03/28 09:50:35;;;;;;;;;;;;;;;;;;4218485;28;1258;-58
2022/03/28 09:52:56;;;;;;;;;;;;;;;;;;4218742;28;1132;-57
2022/03/28 09:55:16;;;;;;;;;;;;;;;;;;4212497;28;1173;-57
2022/03/28 09:57:38;;;;;;;;;;;;;;;;;;4218230;28;1228;-57
2022/03/28 09:59:58;;;;;;;;;;;;;;;;;;4218501;28;1258;-57
2022/03/28 10:02:19;;;;;;;;;;;;;;;;;;4218764;28;1062;-57
2022/03/28 10:04:40;;;;;;;;;;;;;;;;;;4218706;28;1245;-57
2022/03/28 10:07:02;;;;;;;;;;;;;;;;;;4218640;28;1263;-56
2022/03/28 10:09:22;;;;;;;;;;;;;;;;;;4218818;28;1300;-56
2022/03/28 10:11:43;;;;;;;;;;;;;;;;;;4218434;28;1060;-57
2022/03/28 10:14:03;;;;;;;;;;;;;;;;;;4218602;28;1226;-57
2022/03/28 10:16:24;;;;;;;;;;;;;;;;;;4218440;28;946;-57
2022/03/28 10:18:45;;;;;;;;;;;;;;;;;;4217811;28;1734;-58
2022/03/28 10:21:06;;;;;;;;;;;;;;;;;;4218229;28;1401;-58
2022/03/28 10:23:27;;;;;;;;;;;;;;;;;;4207435;28;1901;-58
2022/03/28 10:25:47;;;;;;;;;;;;;;;;;;4202941;28;852;-57
2022/03/28 10:28:08;;;;;;;;;;;;;;;;;;4218885;28;1224;-58
2022/03/28 10:30:30;;;;;;;;;;;;;;;;;;4218733;28;2126;-58
2022/03/28 10:32:51;;;;;;;;;;;;;;;;;;4203221;28;1130;-58
2022/03/28 10:35:13;;;;;;;;;;;;;;;;;;4238004;27;1103;-59
2022/03/28 10:37:33;;;;;;;;;;;;;;;;;;4201649;28;2702;-58
2022/03/28 10:39:54;;;;;;;;;;;;;;;;;;4199792;28;2691;-58
2022/03/28 10:42:15;;;;;;;;;;;;;;;;;;4206054;28;2024;-58
2022/03/28 10:44:35;;;;;;;;;;;;;;;;;;4207385;28;2377;-58
2022/03/28 10:46:56;;;;;;;;;;;;;;;;;;4202708;28;1188;-58
2022/03/28 10:49:17;;;;;;;;;;;;;;;;;;4208530;28;1089;-57
2022/03/28 10:51:37;;;;;;;;;;;;;;;;;;4219011;28;1101;-58
2022/03/28 10:53:59;;;;;;;;;;;;;;;;;;4218852;28;1379;-57
2022/03/28 10:56:20;;;;;;;;;;;;;;;;;;4220159;28;1116;-57
2022/03/28 10:58:40;;;;;;;;;;;;;;;;;;4220405;28;818;-57
2022/03/28 11:01:01;;;;;;;;;;;;;;;;;;4209340;28;1944;-57
2022/03/28 11:03:22;;;;;;;;;;;;;;;;;;4216721;28;1972;-57
2022/03/28 11:05:42;;;;;;;;;;;;;;;;;;4216906;28;1662;-57
2022/03/28 11:08:03;;;;;;;;;;;;;;;;;;4206466;28;1230;-57
2022/03/28 11:10:26;;;;;;;;;;;;;;;;;;4202790;28;961;-57
2022/03/28 11:12:51;;;;;;;;;;;;;;;;;;4217238;28;1427;-57
2022/03/28 11:15:11;;;;;;;;;;;;;;;;;;4218798;28;1002;-57
2022/03/28 11:17:32;;;;;;;;;;;;;;;;;;4219892;28;1148;-57
2022/03/28 11:19:53;;;;;;;;;;;;;;;;;;4219649;28;1198;-57
2022/03/28 11:22:13;;;;;;;;;;;;;;;;;;4219309;28;1345;-57
2022/03/28 11:24:34;;;;;;;;;;;;;;;;;;4218551;28;1979;-57
2022/03/28 11:26:55;;;;;;;;;;;;;;;;;;4217207;28;1969;-57
2022/03/28 11:29:16;;;;;;;;;;;;;;;;;;4236690;28;1032;-57
2022/03/28 11:31:36;;;;;;;;;;;;;;;;;;4236291;27;976;-57
2022/03/28 11:33:57;;;;;;;;;;;;;;;;;;4235907;27;993;-57
2022/03/28 11:36:18;;;;;;;;;;;;;;;;;;4219079;28;1588;-57
2022/03/28 11:38:39;;;;;;;;;;;;;;;;;;4217316;28;993;-57
2022/03/28 11:41:00;;;;;;;;;;;;;;;;;;4222011;28;1098;-57
2022/03/28 11:43:20;;;;;;;;;;;;;;;;;;4221763;28;1910;-57
2022/03/28 11:45:42;;;;;;;;;;;;;;;;;;4222269;28;944;-57
2022/03/28 11:48:03;;;;;;;;;;;;;;;;;;4221949;28;1612;-57
2022/03/28 11:50:24;;;;;;;;;;;;;;;;;;4221792;28;1221;-57
2022/03/28 11:52:44;;;;;;;;;;;;;;;;;;4222053;28;983;-57
2022/03/28 11:55:05;;;;;;;;;;;;;;;;;;4222214;28;1069;-57
2022/03/28 12:00:04;;;;;;;;;;;;;;;;;;4226919;28;1429;-57
2022/03/28 12:02:35;;;;;;;;;;;;;;;;;;4238888;27;1195;-57
2022/03/28 12:04:56;;;;;;;;;;;;;;;;;;4233908;28;1986;-57
2022/03/28 12:07:17;;;;;;;;;;;;;;;;;;4221402;28;1186;-57
2022/03/28 12:09:38;;;;;;;;;;;;;;;;;;4221875;28;1223;-57
2022/03/28 12:11:59;;;;;;;;;;;;;;;;;;4221588;28;1306;-58
2022/03/28 12:14:20;;;;;;;;;;;;;;;;;;4221723;28;1096;-57
2022/03/28 12:16:40;;;;;;;;;;;;;;;;;;4221888;28;1198;-57
2022/03/28 12:19:02;;;;;;;;;;;;;;;;;;4220483;28;1135;-57
2022/03/28 12:21:23;;;;;;;;;;;;;;;;;;4207876;28;1034;-57
2022/03/28 12:23:43;;;;;;;;;;;;;;;;;;4221599;28;1983;-57
2022/03/28 12:26:05;;;;;;;;;;;;;;;;;;4221634;28;880;-57
2022/03/28 12:28:25;;;;;;;;;;;;;;;;;;4217040;28;1364;-57
2022/03/28 12:30:46;;;;;;;;;;;;;;;;;;4221777;28;946;-57
2022/03/28 12:33:06;;;;;;;;;;;;;;;;;;4221253;28;1029;-58
2022/03/28 12:35:27;;;;;;;;;;;;;;;;;;4221190;28;1140;-57
2022/03/28 12:37:47;;;;;;;;;;;;;;;;;;4221390;28;1141;-57
2022/03/28 12:40:08;;;;;;;;;;;;;;;;;;4221957;28;855;-57
2022/03/28 12:42:29;;;;;;;;;;;;;;;;;;4221191;28;1011;-58
2022/03/28 12:44:50;;;;;;;;;;;;;;;;;;4220539;28;1985;-58
2022/03/28 12:47:10;;;;;;;;;;;;;;;;;;4221260;28;1706;-57
2022/03/28 12:49:31;;;;;;;;;;;;;;;;;;4220955;28;1969;-57
2022/03/28 12:51:52;;;;;;;;;;;;;;;;;;4219710;28;1426;-57
2022/03/28 12:54:12;;;;;;;;;;;;;;;;;;4221406;28;1144;-57
2022/03/28 12:56:33;;;;;;;;;;;;;;;;;;4216787;28;2672;-58
2022/03/28 12:58:54;;;;;;;;;;;;;;;;;;4204482;28;1095;-57
2022/03/28 13:01:14;;;;;;;;;;;;;;;;;;4204364;28;1039;-57
2022/03/28 13:03:35;;;;;;;;;;;;;;;;;;4204008;28;934;-57
2022/03/28 13:05:56;;;;;;;;;;;;;;;;;;4217836;28;995;-57
2022/03/28 13:08:16;;;;;;;;;;;;;;;;;;4220431;28;995;-57
2022/03/28 13:10:38;;;;;;;;;;;;;;;;;;4220904;28;965;-57
2022/03/28 13:12:59;;;;;;;;;;;;;;;;;;4220539;28;1281;-57
2022/03/28 13:15:19;;;;;;;;;;;;;;;;;;4221144;28;1080;-57
2022/03/28 13:17:43;;;;;;;;;;;;;;;;;;4220822;28;1106;-57
2022/03/28 13:20:04;;;;;;;;;;;;;;;;;;4220702;28;1149;-57
2022/03/28 13:22:24;;;;;;;;;;;;;;;;;;4221182;28;982;-57
2022/03/28 13:24:45;;;;;;;;;;;;;;;;;;4221006;28;1986;-57
2022/03/28 13:29:44;;;;;;;;;;;;;;;;;;4219627;28;1341;-58
2022/03/28 13:32:04;;;;;;;;;;;;;;;;;;4220361;28;1199;-57
2022/03/28 13:34:25;;;;;;;;;;;;;;;;;;4219880;28;1286;-57
2022/03/28 13:36:46;;;;;;;;;;;;;;;;;;4220775;28;1004;-59
2022/03/28 13:39:07;;;;;;;;;;;;;;;;;;4220855;28;974;-57
2022/03/28 13:41:27;;;;;;;;;;;;;;;;;;4220880;28;1192;-57
2022/03/28 13:43:48;;;;;;;;;;;;;;;;;;4220747;28;1026;-57
2022/03/28 13:46:11;;;;;;;;;;;;;;;;;;4220709;28;930;-57
2022/03/28 13:48:32;;;;;;;;;;;;;;;;;;4218799;28;1990;-57
2022/03/28 13:50:53;;;;;;;;;;;;;;;;;;4219913;28;1546;-57
2022/03/28 13:53:14;;;;;;;;;;;;;;;;;;4220928;28;1186;-57
2022/03/28 13:55:35;;;;;;;;;;;;;;;;;;4220439;28;1566;-57
2022/03/28 13:57:55;;;;;;;;;;;;;;;;;;4220522;28;982;-57
2022/03/28 14:00:16;;;;;;;;;;;;;;;;;;4220161;28;1457;-57
2022/03/28 14:02:37;;;;;;;;;;;;;;;;;;4219237;28;2001;-57
2022/03/28 14:04:58;;;;;;;;;;;;;;;;;;4219930;28;1918;-57
2022/03/28 14:07:19;;;;;;;;;;;;;;;;;;4218804;28;1366;-58
2022/03/28 14:09:39;;;;;;;;;;;;;;;;;;4229006;28;1738;-57
2022/03/28 14:12:00;;;;;;;;;;;;;;;;;;4231656;27;2058;-57
2022/03/28 14:14:23;;;;;;;;;;;;;;;;;;4226067;28;1559;-57
2022/03/28 14:16:44;;;;;;;;;;;;;;;;;;4235265;28;1287;-57
2022/03/28 14:19:04;;;;;;;;;;;;;;;;;;4237355;28;863;-57
2022/03/28 14:21:25;;;;;;;;;;;;;;;;;;4203760;28;1219;-58
2022/03/28 14:23:46;;;;;;;;;;;;;;;;;;4202363;28;1403;-57
2022/03/28 14:26:06;;;;;;;;;;;;;;;;;;4203125;28;1985;-57
2022/03/28 14:28:27;;;;;;;;;;;;;;;;;;4215915;28;1398;-57
2022/03/28 14:30:49;;;;;;;;;;;;;;;;;;4219419;28;954;-57
2022/03/28 14:33:09;;;;;;;;;;;;;;;;;;4219296;28;966;-57
2022/03/28 14:35:31;;;;;;;;;;;;;;;;;;4219363;28;1152;-58
2022/03/28 14:37:52;;;;;;;;;;;;;;;;;;4219498;28;1114;-57
2022/03/28 14:40:13;;;;;;;;;;;;;;;;;;4219398;28;1167;-57
2022/03/28 14:42:34;;;;;;;;;;;;;;;;;;4219868;28;1168;-58
2022/03/28 14:44:54;;;;;;;;;;;;;;;;;;4219888;28;1886;-57
2022/03/28 14:47:15;;;;;;;;;;;;;;;;;;4220941;28;1690;-57
2022/03/28 14:49:35;;;;;;;;;;;;;;;;;;4216700;28;1510;-57
2022/03/28 14:51:56;;;;;;;;;;;;;;;;;;4219662;28;1455;-57
2022/03/28 14:54:17;;;;;;;;;;;;;;;;;;4219950;28;1020;-58
2022/03/28 14:56:38;;;;;;;;;;;;;;;;;;4203221;28;1103;-57
2022/03/28 14:58:59;;;;;;;;;;;;;;;;;;4214623;28;970;-57
2022/03/28 15:01:19;;;;;;;;;;;;;;;;;;4203128;28;1107;-57
2022/03/28 15:03:40;;;;;;;;;;;;;;;;;;4203101;28;998;-57
2022/03/28 15:06:00;;;;;;;;;;;;;;;;;;4216821;28;1906;-57
2022/03/28 15:08:21;;;;;;;;;;;;;;;;;;4219941;28;761;-57
2022/03/28 15:10:42;;;;;;;;;;;;;;;;;;4220172;28;933;-58
2022/03/28 15:13:03;;;;;;;;;;;;;;;;;;4219226;28;1115;-58
2022/03/28 15:15:23;;;;;;;;;;;;;;;;;;4221766;28;1238;-57
2022/03/28 15:17:44;;;;;;;;;;;;;;;;;;4223006;28;873;-57
2022/03/28 15:20:04;;;;;;;;;;;;;;;;;;4222139;28;1175;-57
2022/03/28 15:22:25;;;;;;;;;;;;;;;;;;4205797;28;1287;-57
2022/03/28 15:24:46;;;;;;;;;;;;;;;;;;4205861;28;1910;-58
2022/03/28 15:27:08;;;;;;;;;;;;;;;;;;4205449;28;1103;-57
2022/03/28 15:29:28;;;;;;;;;;;;;;;;;;4208241;28;1603;-58
2022/03/28 15:31:49;;;;;;;;;;;;;;;;;;4222233;28;1006;-58
2022/03/28 15:34:10;;;;;;;;;;;;;;;;;;4222416;28;941;-57
2022/03/28 15:36:30;;;;;;;;;;;;;;;;;;4204549;28;996;-57
2022/03/28 15:38:51;;;;;;;;;;;;;;;;;;4204023;28;1159;-57
2022/03/28 15:41:12;;;;;;;;;;;;;;;;;;4203990;28;774;-58
2022/03/28 15:43:33;;;;;;;;;;;;;;;;;;4205134;28;1070;-58
2022/03/28 15:45:54;;;;;;;;;;;;;;;;;;4220821;28;1979;-57
2022/03/28 15:48:14;;;;;;;;;;;;;;;;;;4220602;28;1000;-58
2022/03/28 15:50:35;;;;;;;;;;;;;;;;;;4220308;28;1114;-57
2022/03/28 15:52:56;;;;;;;;;;;;;;;;;;4220217;28;1004;-58
2022/03/28 15:55:16;;;;;;;;;;;;;;;;;;4220101;28;1300;-60
2022/03/28 15:57:37;;;;;;;;;;;;;;;;;;4220013;28;1267;-58
2022/03/28 15:59:59;;;;;;;;;;;;;;;;;;4219800;28;1540;-59
2022/03/28 16:02:19;;;;;;;;;;;;;;;;;;4219721;28;1004;-58
2022/03/28 16:04:40;;;;;;;;;;;;;;;;;;4221130;28;1105;-58
2022/03/28 16:07:00;;;;;;;;;;;;;;;;;;4221539;28;1179;-58
2022/03/28 16:09:22;;;;;;;;;;;;;;;;;;4221885;28;1128;-58
2022/03/28 16:11:42;;;;;;;;;;;;;;;;;;4221879;28;1135;-59
2022/03/28 16:14:06;;;;;;;;;;;;;;;;;;4221362;28;1024;-57
2022/03/28 16:16:27;;;;;;;;;;;;;;;;;;4220043;28;1109;-57
2022/03/28 16:18:47;;;;;;;;;;;;;;;;;;4219994;28;965;-57
2022/03/28 16:21:08;;;;;;;;;;;;;;;;;;4214043;28;1788;-62
2022/03/28 16:23:29;;;;;;;;;;;;;;;;;;4207490;28;1941;-57
2022/03/28 16:25:50;;;;;;;;;;;;;;;;;;4201872;28;1981;-57
2022/03/28 16:28:10;;;;;;;;;;;;;;;;;;4203316;28;927;-57
2022/03/28 16:30:31;;;;;;;;;;;;;;;;;;4202977;28;996;-57
2022/03/28 16:32:52;;;;;;;;;;;;;;;;;;4204006;28;1258;-57
2022/03/28 16:35:12;;;;;;;;;;;;;;;;;;4211408;28;1392;-59